createdAt,value
2022-11-21T00:00:33.523Z,18.69
2022-11-21T00:03:01.900Z,18.68
2022-11-21T00:05:29.519Z,18.68
2022-11-21T00:07:57.141Z,18.68
2022-11-21T00:10:24.866Z,18.68
2022-11-21T00:12:56.215Z,18.67
2022-11-21T00:15:24.196Z,18.68
2022-11-21T00:17:51.878Z,18.67
2022-11-21T00:20:19.951Z,18.67
2022-11-21T00:22:47.613Z,18.67
2022-11-21T00:25:15.445Z,18.67
2022-11-21T00:27:43.324Z,18.67
2022-11-21T00:30:13.027Z,18.67
2022-11-21T00:32:40.677Z,18.67
2022-11-21T00:35:09.035Z,18.67
2022-11-21T00:37:36.624Z,18.65
2022-11-21T00:40:04.554Z,18.65
2022-11-21T00:42:32.223Z,18.65
2022-11-21T00:44:59.828Z,18.63
2022-11-21T00:47:28.768Z,18.63
2022-11-21T00:49:56.379Z,18.64
2022-11-21T00:52:23.971Z,18.63
2022-11-21T00:54:51.557Z,18.63
2022-11-21T00:57:19.111Z,18.64
2022-11-21T00:59:46.673Z,18.63
2022-11-21T01:02:14.700Z,18.63
2022-11-21T01:04:43.652Z,18.63
2022-11-21T01:07:11.232Z,18.63
2022-11-21T01:09:38.820Z,18.62
2022-11-21T01:12:06.880Z,18.61
2022-11-21T01:14:34.460Z,18.61
2022-11-21T01:17:02.101Z,18.61
2022-11-21T01:19:29.723Z,18.61
2022-11-21T01:21:58.693Z,18.61
2022-11-21T01:24:26.487Z,18.61
2022-11-21T01:26:54.629Z,18.60
2022-11-21T01:29:22.271Z,18.60
2022-11-21T01:31:49.991Z,18.61
2022-11-21T01:34:17.608Z,18.60
2022-11-21T01:36:45.289Z,18.60
2022-11-21T01:39:14.261Z,18.58
2022-11-21T01:41:42.846Z,18.60
2022-11-21T01:44:15.159Z,18.58
2022-11-21T01:46:42.776Z,18.59
2022-11-21T01:49:11.141Z,18.57
2022-11-21T01:51:40.033Z,18.57
2022-11-21T01:54:09.163Z,18.57
2022-11-21T01:56:40.251Z,18.57
2022-11-21T01:59:07.792Z,18.57
2022-11-21T02:01:35.532Z,18.56
2022-11-21T02:04:03.472Z,18.57
2022-11-21T02:06:31.340Z,18.57
2022-11-21T02:08:58.973Z,18.57
2022-11-21T02:11:30.622Z,18.57
2022-11-21T02:13:59.791Z,18.57
2022-11-21T02:16:27.568Z,18.57
2022-11-21T02:18:55.205Z,18.57
2022-11-21T02:21:27.496Z,18.57
2022-11-21T02:24:00.476Z,18.57
2022-11-21T02:26:29.904Z,18.57
2022-11-21T02:28:57.548Z,18.56
2022-11-21T02:31:25.154Z,18.57
2022-11-21T02:33:52.737Z,18.57
2022-11-21T02:36:37.095Z,18.57
2022-11-21T02:39:05.112Z,18.56
2022-11-21T02:41:34.056Z,18.57
2022-11-21T02:44:05.372Z,18.57
2022-11-21T02:46:32.945Z,18.57
2022-11-21T02:49:00.543Z,18.57
2022-11-21T02:51:28.121Z,18.57
2022-11-21T02:53:55.780Z,18.57
2022-11-21T02:56:23.425Z,18.57
2022-11-21T02:58:52.510Z,18.56
2022-11-21T03:01:20.365Z,18.58
2022-11-21T03:03:47.987Z,18.57
2022-11-21T03:06:15.586Z,18.58
2022-11-21T03:08:43.191Z,18.58
2022-11-21T03:11:10.761Z,18.57
2022-11-21T03:13:38.354Z,18.57
2022-11-21T03:16:07.391Z,18.57
2022-11-21T03:18:35.005Z,18.57
2022-11-21T03:21:02.644Z,18.56
2022-11-21T03:23:30.285Z,18.56
2022-11-21T03:25:59.603Z,18.55
2022-11-21T03:28:27.192Z,18.55
2022-11-21T03:30:54.759Z,18.55
2022-11-21T03:33:23.735Z,18.55
2022-11-21T03:35:51.301Z,18.55
2022-11-21T03:38:18.936Z,18.54
2022-11-21T03:40:46.512Z,18.54
2022-11-21T03:43:14.086Z,18.54
2022-11-21T03:45:41.649Z,18.53
2022-11-21T03:48:09.204Z,18.53
2022-11-21T03:50:38.167Z,18.53
2022-11-21T03:53:05.877Z,18.54
2022-11-21T03:55:33.452Z,18.54
2022-11-21T03:58:01.033Z,18.54
2022-11-21T04:00:28.593Z,18.54
2022-11-21T04:02:56.177Z,18.55
2022-11-21T04:05:23.743Z,18.54
2022-11-21T04:07:53.894Z,18.55
2022-11-21T04:10:21.954Z,18.55
2022-11-21T04:12:49.518Z,18.54
2022-11-21T04:15:17.384Z,18.54
2022-11-21T04:17:44.956Z,18.54
2022-11-21T04:20:12.803Z,18.54
2022-11-21T04:22:40.419Z,18.54
2022-11-21T04:25:09.827Z,18.55
2022-11-21T04:27:37.416Z,18.55
2022-11-21T04:30:05.963Z,18.55
2022-11-21T04:32:33.579Z,18.55
2022-11-21T04:35:01.508Z,18.55
2022-11-21T04:37:29.091Z,18.55
2022-11-21T04:39:56.738Z,18.55
2022-11-21T04:42:25.678Z,18.54
2022-11-21T04:44:53.251Z,18.56
2022-11-21T04:47:20.823Z,18.55
2022-11-21T04:49:48.481Z,18.56
2022-11-21T04:52:16.315Z,18.55
2022-11-21T04:54:43.937Z,18.56
2022-11-21T04:57:11.608Z,18.56
2022-11-21T04:59:40.579Z,18.55
2022-11-21T05:02:08.264Z,18.55
2022-11-21T05:04:35.860Z,18.55
2022-11-21T05:07:03.570Z,18.55
2022-11-21T05:09:31.190Z,18.55
2022-11-21T05:12:16.166Z,18.56
2022-11-21T05:14:45.095Z,18.55
2022-11-21T05:17:12.758Z,18.54
2022-11-21T05:19:40.334Z,18.54
2022-11-21T05:22:07.897Z,18.54
2022-11-21T05:24:35.472Z,18.53
2022-11-21T05:27:03.021Z,18.54
2022-11-21T05:29:30.586Z,18.53
2022-11-21T05:31:59.568Z,18.52
2022-11-21T05:34:27.550Z,18.53
2022-11-21T05:36:57.098Z,18.52
2022-11-21T05:39:24.840Z,18.52
2022-11-21T05:41:52.552Z,18.53
2022-11-21T05:44:19.179Z,18.53
2022-11-21T05:46:46.750Z,18.55
2022-11-21T05:49:15.702Z,18.55
2022-11-21T05:51:43.311Z,18.54
2022-11-21T05:54:13.675Z,18.55
2022-11-21T05:56:41.243Z,18.54
2022-11-21T05:59:09.324Z,18.54
2022-11-21T06:01:54.650Z,18.54
2022-11-21T06:04:23.543Z,18.54
2022-11-21T06:06:51.232Z,18.53
2022-11-21T06:09:19.149Z,18.54
2022-11-21T06:11:46.705Z,18.54
2022-11-21T06:14:14.310Z,18.54
2022-11-21T06:16:41.834Z,18.53
2022-11-21T06:19:09.584Z,18.53
2022-11-21T06:21:38.488Z,18.53
2022-11-21T06:24:07.798Z,18.54
2022-11-21T06:26:35.356Z,18.53
2022-11-21T06:29:02.927Z,18.54
2022-11-21T06:31:31.755Z,18.53
2022-11-21T06:33:59.718Z,18.53
2022-11-21T06:36:27.496Z,18.53
2022-11-21T06:38:56.529Z,18.55
2022-11-21T06:41:24.959Z,18.53
2022-11-21T06:43:52.664Z,18.53
2022-11-21T06:46:20.242Z,18.54
2022-11-21T06:48:47.828Z,18.54
2022-11-21T06:51:18.241Z,18.53
2022-11-21T06:53:45.948Z,18.54
2022-11-21T06:56:15.497Z,18.53
2022-11-21T06:58:43.057Z,18.53
2022-11-21T07:01:11.128Z,18.52
2022-11-21T07:03:38.832Z,18.53
2022-11-21T07:06:06.754Z,18.53
2022-11-21T07:08:35.302Z,18.52
2022-11-21T07:11:24.182Z,18.52
2022-11-21T07:13:52.036Z,18.52
2022-11-21T07:16:19.707Z,18.52
2022-11-21T07:18:47.237Z,18.53
2022-11-21T07:21:14.767Z,18.53
2022-11-21T07:23:42.326Z,18.52
2022-11-21T07:26:11.256Z,18.53
2022-11-21T07:28:38.918Z,18.53
2022-11-21T07:31:13.230Z,18.52
2022-11-21T07:33:43.067Z,18.52
2022-11-21T07:36:10.658Z,18.53
2022-11-21T07:38:38.352Z,18.53
2022-11-21T07:41:05.940Z,18.54
2022-11-21T07:43:33.482Z,18.53
2022-11-21T07:46:01.203Z,18.53
2022-11-21T07:48:30.124Z,18.52
2022-11-21T07:50:57.675Z,18.53
2022-11-21T07:53:25.227Z,18.53
2022-11-21T07:55:53.095Z,18.52
2022-11-21T07:58:20.742Z,18.53
2022-11-21T08:00:48.325Z,18.53
2022-11-21T08:03:15.888Z,18.52
2022-11-21T08:05:44.955Z,17.87
2022-11-21T08:08:13.376Z,17.09
2022-11-21T08:10:41.555Z,17.24
2022-11-21T08:13:09.187Z,17.53
2022-11-21T08:15:36.824Z,17.73
2022-11-21T08:18:14.135Z,17.91
2022-11-21T08:20:41.798Z,18.00
2022-11-21T08:23:11.721Z,18.07
2022-11-21T08:25:39.524Z,18.10
2022-11-21T08:28:07.401Z,18.14
2022-11-21T08:30:35.400Z,18.17
2022-11-21T08:33:02.973Z,18.19
2022-11-21T08:35:30.884Z,18.21
2022-11-21T08:37:58.535Z,18.23
2022-11-21T08:40:27.776Z,18.26
2022-11-21T08:42:58.538Z,18.26
2022-11-21T08:45:26.163Z,18.28
2022-11-21T08:47:53.807Z,18.27
2022-11-21T08:50:21.499Z,18.29
2022-11-21T08:52:49.055Z,18.29
2022-11-21T08:55:16.792Z,18.31
2022-11-21T08:57:45.719Z,18.34
2022-11-21T09:00:14.274Z,18.35
2022-11-21T09:02:41.845Z,18.37
2022-11-21T09:05:10.490Z,18.39
2022-11-21T09:07:38.084Z,18.43
2022-11-21T09:10:06.792Z,18.44
2022-11-21T09:12:34.345Z,18.47
2022-11-21T09:15:20.960Z,18.50
2022-11-21T09:18:07.983Z,18.52
2022-11-21T09:20:39.735Z,18.56
2022-11-21T09:23:08.268Z,18.58
2022-11-21T09:25:35.962Z,18.60
2022-11-21T09:28:03.598Z,18.64
2022-11-21T09:30:32.495Z,18.66
2022-11-21T09:33:01.508Z,18.69
2022-11-21T09:35:29.076Z,18.72
2022-11-21T09:37:56.631Z,18.76
2022-11-21T09:40:24.307Z,18.81
2022-11-21T09:43:04.127Z,18.85
2022-11-21T09:45:34.760Z,18.89
2022-11-21T09:48:03.741Z,18.93
2022-11-21T09:50:32.807Z,18.97
2022-11-21T09:53:02.732Z,18.99
2022-11-21T09:55:32.844Z,19.04
2022-11-21T09:58:01.346Z,19.09
2022-11-21T10:00:28.986Z,19.11
2022-11-21T10:02:57.957Z,19.15
2022-11-21T10:05:30.872Z,19.18
2022-11-21T10:07:59.156Z,19.23
2022-11-21T10:10:32.634Z,19.23
2022-11-21T10:13:10.525Z,19.26
2022-11-21T10:15:44.540Z,19.28
2022-11-21T10:18:25.862Z,19.32
2022-11-21T10:20:56.060Z,19.33
2022-11-21T10:23:33.846Z,19.36
2022-11-21T10:26:10.696Z,19.36
2022-11-21T10:28:41.252Z,19.36
2022-11-21T10:31:09.629Z,19.36
2022-11-21T10:33:40.328Z,19.35
2022-11-21T10:36:10.249Z,19.36
2022-11-21T10:38:38.818Z,19.36
2022-11-21T10:41:08.475Z,19.35
2022-11-21T10:43:55.363Z,19.35
2022-11-21T10:46:22.909Z,19.35
2022-11-21T10:48:55.415Z,19.34
2022-11-21T10:51:29.894Z,19.33
2022-11-21T10:54:23.162Z,19.32
2022-11-21T10:56:50.713Z,19.32
2022-11-21T10:59:28.624Z,19.35
2022-11-21T11:01:58.646Z,19.35
2022-11-21T11:04:29.600Z,19.36
2022-11-21T11:07:00.027Z,19.35
2022-11-21T11:09:30.153Z,19.34
2022-11-21T11:12:47.138Z,19.33
2022-11-21T11:15:21.727Z,19.32
2022-11-21T11:17:53.619Z,19.32
2022-11-21T11:20:37.751Z,19.32
2022-11-21T11:23:19.130Z,19.31
2022-11-21T11:25:48.089Z,19.32
2022-11-21T11:28:15.728Z,19.30
2022-11-21T11:30:43.272Z,19.30
2022-11-21T11:33:32.304Z,19.30
2022-11-21T11:36:11.107Z,19.28
2022-11-21T11:38:38.671Z,19.28
2022-11-21T11:41:11.179Z,19.27
2022-11-21T11:43:57.230Z,19.26
2022-11-21T11:46:49.103Z,19.25
2022-11-21T11:49:21.228Z,19.24
2022-11-21T11:51:52.520Z,19.24
2022-11-21T11:54:22.352Z,19.25
2022-11-21T11:56:49.992Z,19.23
2022-11-21T11:59:19.793Z,19.24
2022-11-21T12:01:49.671Z,19.22
2022-11-21T12:04:18.399Z,19.21
2022-11-21T12:09:39.869Z,19.19
2022-11-21T12:12:11.411Z,19.17
2022-11-21T12:15:11.124Z,19.16
2022-11-21T12:17:41.283Z,19.16
2022-11-21T12:20:15.583Z,19.17
2022-11-21T12:22:43.275Z,19.16
2022-11-21T12:25:13.392Z,19.16
2022-11-21T12:27:41.924Z,19.17
2022-11-21T12:30:26.532Z,19.17
2022-11-21T12:32:57.007Z,19.17
2022-11-21T12:35:45.362Z,19.16
2022-11-21T12:38:20.736Z,19.16
2022-11-21T12:40:53.318Z,19.15
2022-11-21T12:43:25.036Z,19.13
2022-11-21T12:45:55.654Z,19.14
2022-11-21T12:48:49.795Z,19.13
2022-11-21T12:51:42.372Z,19.12
2022-11-21T12:54:33.779Z,19.10
2022-11-21T12:57:09.069Z,19.10
2022-11-21T12:59:40.932Z,19.09
2022-11-21T13:02:13.311Z,19.10
2022-11-21T13:04:41.241Z,19.09
2022-11-21T13:07:08.989Z,19.06
2022-11-21T13:09:38.527Z,19.04
2022-11-21T13:12:08.716Z,19.05
2022-11-21T13:14:41.133Z,19.04
2022-11-21T13:17:19.657Z,19.02
2022-11-21T13:19:51.260Z,19.02
2022-11-21T13:22:50.977Z,19.00
2022-11-21T13:25:43.255Z,18.99
2022-11-21T13:28:36.925Z,18.98
2022-11-21T13:31:26.977Z,18.97
2022-11-21T13:33:54.565Z,18.97
2022-11-21T13:36:41.892Z,18.96
2022-11-21T13:39:36.818Z,18.96
2022-11-21T13:42:31.195Z,18.95
2022-11-21T13:45:00.431Z,18.94
2022-11-21T13:48:18.639Z,18.94
2022-11-21T13:51:01.657Z,18.96
2022-11-21T13:53:44.386Z,18.96
2022-11-21T13:56:13.469Z,18.95
2022-11-21T13:58:50.775Z,18.95
2022-11-21T14:01:41.891Z,18.97
2022-11-21T14:04:21.268Z,18.96
2022-11-21T14:06:49.544Z,18.96
2022-11-21T14:09:24.980Z,18.97
2022-11-21T14:11:54.231Z,18.97
2022-11-21T14:14:26.984Z,18.97
2022-11-21T14:16:59.402Z,18.97
2022-11-21T14:19:27.355Z,18.97
2022-11-21T14:21:56.012Z,18.98
2022-11-21T14:24:23.625Z,18.97
2022-11-21T14:26:52.000Z,18.97
2022-11-21T14:29:22.529Z,18.97
2022-11-21T14:31:50.388Z,18.97
2022-11-21T14:34:27.015Z,18.96
2022-11-21T14:36:55.383Z,18.96
2022-11-21T14:39:44.122Z,18.96
2022-11-21T14:42:13.491Z,18.95
2022-11-21T14:44:41.102Z,18.95
2022-11-21T14:47:17.321Z,18.95
2022-11-21T14:49:53.724Z,18.94
2022-11-21T14:52:23.408Z,18.94
2022-11-21T14:55:27.873Z,18.94
2022-11-21T14:57:41.756Z,18.92
2022-11-21T15:00:24.645Z,18.92
2022-11-21T15:02:59.212Z,18.90
2022-11-21T15:06:00.218Z,18.90
2022-11-21T15:08:53.730Z,18.88
2022-11-21T15:11:10.890Z,18.88
2022-11-21T15:13:58.536Z,18.88
2022-11-21T15:16:25.976Z,18.87
2022-11-21T15:18:53.612Z,18.85
2022-11-21T15:21:22.540Z,18.85
2022-11-21T15:23:51.407Z,18.84
2022-11-21T15:26:28.991Z,18.85
2022-11-21T15:28:56.692Z,18.85
2022-11-21T15:31:24.443Z,18.78
2022-11-21T15:34:19.615Z,18.35
2022-11-21T15:36:45.220Z,18.53
2022-11-21T15:39:13.683Z,18.63
2022-11-21T15:41:41.250Z,18.68
2022-11-21T15:44:26.542Z,18.72
2022-11-21T15:46:54.173Z,18.73
2022-11-21T15:49:37.151Z,18.74
2022-11-21T15:52:10.403Z,18.75
2022-11-21T15:54:38.130Z,18.74
2022-11-21T15:57:05.702Z,18.74
2022-11-21T15:59:33.228Z,18.73
2022-11-21T16:02:00.808Z,18.75
2022-11-21T16:04:28.476Z,18.75
2022-11-21T16:06:56.199Z,18.76
2022-11-21T16:09:25.124Z,18.74
2022-11-21T16:11:52.759Z,18.73
2022-11-21T16:14:20.341Z,18.72
2022-11-21T16:16:47.958Z,18.72
2022-11-21T16:19:15.818Z,18.72
2022-11-21T16:21:43.445Z,18.71
2022-11-21T16:24:11.231Z,18.70
2022-11-21T16:26:40.145Z,18.71
2022-11-21T16:29:07.723Z,18.70
2022-11-21T16:31:35.314Z,18.71
2022-11-21T16:34:02.907Z,18.72
2022-11-21T16:36:31.066Z,18.71
2022-11-21T16:39:03.737Z,18.72
2022-11-21T16:41:35.033Z,18.72
2022-11-21T16:44:04.042Z,18.70
2022-11-21T16:46:31.618Z,18.72
2022-11-21T16:49:00.232Z,18.71
2022-11-21T16:51:27.879Z,18.73
2022-11-21T16:53:55.448Z,18.72
2022-11-21T16:56:23.019Z,18.73
2022-11-21T16:58:50.673Z,18.74
2022-11-21T17:01:20.590Z,18.73
2022-11-21T17:03:48.923Z,18.73
2022-11-21T17:06:17.508Z,18.73
2022-11-21T17:08:45.187Z,18.74
2022-11-21T17:11:13.796Z,18.75
2022-11-21T17:13:41.528Z,18.74
2022-11-21T17:16:09.096Z,18.75
2022-11-21T17:18:38.039Z,18.76
2022-11-21T17:21:05.861Z,18.76
2022-11-21T17:23:33.643Z,18.78
2022-11-21T17:26:04.553Z,18.84
2022-11-21T17:28:32.119Z,18.90
2022-11-21T17:31:00.099Z,18.97
2022-11-21T17:33:27.735Z,19.06
2022-11-21T17:35:56.666Z,19.16
2022-11-21T17:38:24.245Z,19.23
2022-11-21T17:41:00.283Z,19.30
2022-11-21T17:43:27.856Z,19.39
2022-11-21T17:45:59.043Z,19.44
2022-11-21T17:48:26.710Z,19.50
2022-11-21T17:51:03.920Z,19.56
2022-11-21T17:53:31.699Z,19.61
2022-11-21T17:55:59.694Z,19.65
2022-11-21T17:58:27.506Z,19.69
2022-11-21T18:00:56.260Z,19.76
2022-11-21T18:03:23.911Z,19.80
2022-11-21T18:06:02.055Z,19.83
2022-11-21T18:08:32.804Z,19.87
2022-11-21T18:11:00.599Z,19.90
2022-11-21T18:13:28.871Z,19.94
2022-11-21T18:15:56.564Z,19.98
2022-11-21T18:18:24.177Z,20.00
2022-11-21T18:20:52.295Z,20.03
2022-11-21T18:23:21.358Z,20.06
2022-11-21T18:25:48.940Z,20.07
2022-11-21T18:28:16.492Z,20.10
2022-11-21T18:30:44.088Z,20.13
2022-11-21T18:33:16.029Z,20.15
2022-11-21T18:35:46.996Z,20.17
2022-11-21T18:38:40.590Z,20.17
2022-11-21T18:41:06.776Z,20.19
2022-11-21T18:43:34.612Z,20.19
2022-11-21T18:46:05.430Z,20.20
2022-11-21T18:49:00.253Z,20.21
2022-11-21T18:51:23.929Z,20.23
2022-11-21T18:53:52.004Z,20.23
2022-11-21T18:56:21.259Z,20.27
2022-11-21T18:58:49.405Z,20.28
2022-11-21T19:01:19.515Z,20.28
2022-11-21T19:03:47.351Z,20.28
2022-11-21T19:06:17.675Z,20.29
2022-11-21T19:08:45.376Z,20.36
2022-11-21T19:11:13.824Z,20.42
2022-11-21T19:13:42.953Z,20.43
2022-11-21T19:16:12.354Z,20.42
2022-11-21T19:18:42.423Z,20.41
2022-11-21T19:21:13.020Z,20.40
2022-11-21T19:23:40.912Z,20.43
2022-11-21T19:26:09.701Z,20.38
2022-11-21T19:28:37.529Z,20.34
2022-11-21T19:31:07.498Z,20.33
2022-11-21T19:33:35.228Z,20.28
2022-11-21T19:36:03.315Z,20.24
2022-11-21T19:38:30.866Z,20.23
2022-11-21T19:41:19.874Z,20.15
2022-11-21T19:43:48.172Z,20.08
2022-11-21T19:46:18.391Z,20.01
2022-11-21T19:48:47.969Z,20.00
2022-11-21T19:51:15.567Z,19.96
2022-11-21T19:53:43.291Z,19.92
2022-11-21T19:56:12.453Z,19.90
2022-11-21T19:58:40.165Z,19.87
2022-11-21T20:01:08.884Z,19.83
2022-11-21T20:03:38.319Z,19.77
2022-11-21T20:06:06.426Z,19.73
2022-11-21T20:08:34.127Z,19.68
2022-11-21T20:11:05.997Z,19.66
2022-11-21T20:13:33.603Z,19.62
2022-11-21T20:16:01.244Z,19.62
2022-11-21T20:18:29.725Z,19.58
2022-11-21T20:20:58.727Z,19.55
2022-11-21T20:23:26.352Z,19.52
2022-11-21T20:25:53.942Z,19.48
2022-11-21T20:28:21.590Z,19.46
2022-11-21T20:30:49.200Z,19.45
2022-11-21T20:33:16.828Z,19.44
2022-11-21T20:35:44.447Z,19.42
2022-11-21T20:38:13.763Z,19.39
2022-11-21T20:40:44.065Z,19.37
2022-11-21T20:43:14.085Z,19.36
2022-11-21T20:46:08.858Z,19.34
2022-11-21T20:48:29.280Z,19.33
2022-11-21T20:53:53.001Z,19.31
2022-11-21T20:56:22.344Z,19.28
2022-11-21T20:58:50.401Z,19.28
2022-11-21T21:01:20.088Z,19.26
2022-11-21T21:03:48.038Z,19.25
2022-11-21T21:06:16.409Z,19.24
2022-11-21T21:08:44.105Z,19.21
2022-11-21T21:11:36.855Z,19.21
2022-11-21T21:14:01.503Z,19.17
2022-11-21T21:16:30.336Z,19.17
2022-11-21T21:18:57.913Z,19.15
2022-11-21T21:21:27.077Z,19.13
2022-11-21T21:23:59.968Z,19.12
2022-11-21T21:26:29.979Z,19.11
2022-11-21T21:28:57.972Z,19.12
2022-11-21T21:31:25.668Z,19.10
2022-11-21T21:33:53.395Z,19.10
2022-11-21T21:36:22.083Z,19.09
2022-11-21T21:38:51.184Z,19.09
2022-11-21T21:41:18.794Z,19.08
2022-11-21T21:43:49.554Z,19.06
2022-11-21T21:46:20.498Z,19.06
2022-11-21T21:48:48.132Z,19.04
2022-11-21T21:51:16.593Z,19.04
2022-11-21T21:53:44.221Z,19.02
2022-11-21T21:56:11.891Z,19.01
2022-11-21T21:58:40.592Z,19.01
2022-11-21T22:01:11.230Z,18.99
2022-11-21T22:03:38.960Z,19.00
2022-11-21T22:06:07.437Z,18.98
2022-11-21T22:08:35.568Z,18.97
2022-11-21T22:11:04.350Z,18.96
2022-11-21T22:13:32.037Z,18.96
2022-11-21T22:16:00.029Z,18.96
2022-11-21T22:18:29.197Z,18.95
2022-11-21T22:20:56.887Z,18.95
2022-11-21T22:23:24.497Z,18.93
2022-11-21T22:25:55.638Z,18.93
2022-11-21T22:28:23.246Z,18.91
2022-11-21T22:31:00.196Z,18.90
2022-11-21T22:33:29.220Z,18.89
2022-11-21T22:36:00.092Z,18.89
2022-11-21T22:38:27.723Z,18.89
2022-11-21T22:40:57.313Z,18.89
2022-11-21T22:43:24.915Z,18.88
2022-11-21T22:45:52.477Z,18.88
2022-11-21T22:48:20.034Z,18.87
2022-11-21T22:50:49.086Z,18.87
2022-11-21T22:53:16.707Z,18.86
2022-11-21T22:55:44.342Z,18.85
2022-11-21T22:58:11.950Z,18.84
2022-11-21T23:00:39.596Z,18.84
2022-11-21T23:03:07.165Z,18.83
2022-11-21T23:05:34.760Z,18.83
2022-11-21T23:08:03.780Z,18.82
2022-11-21T23:10:31.401Z,18.82
2022-11-21T23:12:58.984Z,18.82
2022-11-21T23:15:26.617Z,18.81
2022-11-21T23:17:54.295Z,18.80
2022-11-21T23:20:21.857Z,18.80
2022-11-21T23:22:49.428Z,18.79
2022-11-21T23:25:19.454Z,18.79
2022-11-21T23:27:47.086Z,18.78
2022-11-21T23:30:15.679Z,18.78
2022-11-21T23:32:43.270Z,18.77
2022-11-21T23:35:10.903Z,18.76
2022-11-21T23:37:38.455Z,18.76
2022-11-21T23:40:07.193Z,18.75
2022-11-21T23:42:36.130Z,18.75
2022-11-21T23:45:03.794Z,18.74
2022-11-21T23:47:31.476Z,18.75
2022-11-21T23:49:58.993Z,18.75
2022-11-21T23:52:26.624Z,18.73
2022-11-21T23:54:54.221Z,18.73
2022-11-21T23:57:21.819Z,18.73
2022-11-21T23:59:50.789Z,18.71
